sensor_id;sensor_type;location;lat;lon;timestamp;P1;durP1;ratioP1;P2;durP2;ratioP2
20832;SDS011;56075;51.264;7.150;2023-02-18T00:00:11;22.27;;;10.70;;
20832;SDS011;56075;51.264;7.150;2023-02-18T00:02:45;23.00;;;10.85;;
20832;SDS011;56075;51.264;7.150;2023-02-18T00:05:17;21.58;;;10.70;;
20832;SDS011;56075;51.264;7.150;2023-02-18T00:07:48;21.10;;;10.63;;
20832;SDS011;56075;51.264;7.150;2023-02-18T00:10:19;22.40;;;11.13;;
20832;SDS011;56075;51.264;7.150;2023-02-18T00:12:51;21.45;;;10.60;;
20832;SDS011;56075;51.264;7.150;2023-02-18T00:15:22;23.85;;;11.10;;
20832;SDS011;56075;51.264;7.150;2023-02-18T00:17:53;23.23;;;11.45;;
20832;SDS011;56075;51.264;7.150;2023-02-18T00:20:24;23.70;;;11.82;;
20832;SDS011;56075;51.264;7.150;2023-02-18T00:22:55;28.25;;;11.75;;
20832;SDS011;56075;51.264;7.150;2023-02-18T00:25:27;26.00;;;11.95;;
20832;SDS011;56075;51.264;7.150;2023-02-18T00:27:58;25.33;;;11.68;;
20832;SDS011;56075;51.264;7.150;2023-02-18T00:30:29;24.45;;;12.10;;
20832;SDS011;56075;51.264;7.150;2023-02-18T00:33:00;26.45;;;11.60;;
20832;SDS011;56075;51.264;7.150;2023-02-18T00:35:32;25.45;;;11.55;;
20832;SDS011;56075;51.264;7.150;2023-02-18T00:38:03;23.63;;;11.40;;
20832;SDS011;56075;51.264;7.150;2023-02-18T00:40:38;23.60;;;11.07;;
20832;SDS011;56075;51.264;7.150;2023-02-18T00:43:10;23.55;;;11.27;;
20832;SDS011;56075;51.264;7.150;2023-02-18T00:45:41;22.35;;;10.95;;
20832;SDS011;56075;51.264;7.150;2023-02-18T00:48:12;28.40;;;13.02;;
20832;SDS011;56075;51.264;7.150;2023-02-18T00:50:45;24.33;;;11.65;;
20832;SDS011;56075;51.264;7.150;2023-02-18T00:53:16;27.85;;;13.65;;
20832;SDS011;56075;51.264;7.150;2023-02-18T00:55:50;27.50;;;13.13;;
20832;SDS011;56075;51.264;7.150;2023-02-18T00:58:21;27.08;;;12.43;;
20832;SDS011;56075;51.264;7.150;2023-02-18T01:00:53;26.50;;;12.50;;
20832;SDS011;56075;51.264;7.150;2023-02-18T01:03:24;31.17;;;13.00;;
20832;SDS011;56075;51.264;7.150;2023-02-18T01:05:56;32.67;;;13.45;;
20832;SDS011;56075;51.264;7.150;2023-02-18T01:08:27;30.00;;;12.57;;
20832;SDS011;56075;51.264;7.150;2023-02-18T01:10:59;28.70;;;14.15;;
20832;SDS011;56075;51.264;7.150;2023-02-18T01:13:30;31.05;;;13.60;;
20832;SDS011;56075;51.264;7.150;2023-02-18T01:16:03;30.40;;;13.77;;
20832;SDS011;56075;51.264;7.150;2023-02-18T01:18:35;31.27;;;13.93;;
20832;SDS011;56075;51.264;7.150;2023-02-18T01:21:08;33.08;;;14.00;;
20832;SDS011;56075;51.264;7.150;2023-02-18T01:23:40;30.13;;;13.27;;
20832;SDS011;56075;51.264;7.150;2023-02-18T01:26:12;31.98;;;14.15;;
20832;SDS011;56075;51.264;7.150;2023-02-18T01:28:43;28.73;;;13.15;;
20832;SDS011;56075;51.264;7.150;2023-02-18T01:31:15;29.80;;;14.50;;
20832;SDS011;56075;51.264;7.150;2023-02-18T01:33:47;28.85;;;12.23;;
20832;SDS011;56075;51.264;7.150;2023-02-18T01:36:18;27.38;;;13.57;;
20832;SDS011;56075;51.264;7.150;2023-02-18T01:38:49;33.10;;;14.27;;
20832;SDS011;56075;51.264;7.150;2023-02-18T01:41:21;31.00;;;14.48;;
20832;SDS011;56075;51.264;7.150;2023-02-18T01:44:12;29.20;;;13.15;;
20832;SDS011;56075;51.264;7.150;2023-02-18T01:46:44;30.85;;;15.02;;
20832;SDS011;56075;51.264;7.150;2023-02-18T01:49:23;32.60;;;14.57;;
20832;SDS011;56075;51.264;7.150;2023-02-18T01:51:59;29.55;;;14.30;;
20832;SDS011;56075;51.264;7.150;2023-02-18T01:54:44;30.08;;;14.23;;
20832;SDS011;56075;51.264;7.150;2023-02-18T01:57:20;27.88;;;14.02;;
20832;SDS011;56075;51.264;7.150;2023-02-18T01:59:56;26.75;;;12.70;;
20832;SDS011;56075;51.264;7.150;2023-02-18T02:02:51;23.75;;;11.60;;
20832;SDS011;56075;51.264;7.150;2023-02-18T02:05:23;25.98;;;12.18;;
20832;SDS011;56075;51.264;7.150;2023-02-18T02:07:54;25.17;;;12.35;;
20832;SDS011;56075;51.264;7.150;2023-02-18T02:16:35;24.92;;;12.45;;
20832;SDS011;56075;51.264;7.150;2023-02-18T02:26:00;22.23;;;11.18;;
20832;SDS011;56075;51.264;7.150;2023-02-18T02:43:20;22.83;;;10.68;;
20832;SDS011;56075;51.264;7.150;2023-02-18T02:51:33;25.20;;;11.02;;
20832;SDS011;56075;51.264;7.150;2023-02-18T02:54:18;23.17;;;10.10;;
20832;SDS011;56075;51.264;7.150;2023-02-18T02:57:53;25.65;;;10.40;;
20832;SDS011;56075;51.264;7.150;2023-02-18T03:00:05;22.50;;;9.25;;
20832;SDS011;56075;51.264;7.150;2023-02-18T03:05:22;21.13;;;8.65;;
20832;SDS011;56075;51.264;7.150;2023-02-18T03:10:47;21.55;;;8.10;;
20832;SDS011;56075;51.264;7.150;2023-02-18T03:16:36;20.75;;;7.53;;
20832;SDS011;56075;51.264;7.150;2023-02-18T03:19:23;19.85;;;7.05;;
20832;SDS011;56075;51.264;7.150;2023-02-18T03:22:02;21.37;;;7.47;;
20832;SDS011;56075;51.264;7.150;2023-02-18T03:24:55;25.77;;;8.90;;
20832;SDS011;56075;51.264;7.150;2023-02-18T03:27:32;24.40;;;8.32;;
20832;SDS011;56075;51.264;7.150;2023-02-18T03:30:15;24.25;;;8.38;;
20832;SDS011;56075;51.264;7.150;2023-02-18T03:33:06;30.48;;;9.63;;
20832;SDS011;56075;51.264;7.150;2023-02-18T03:35:41;34.00;;;10.63;;
20832;SDS011;56075;51.264;7.150;2023-02-18T03:38:22;34.92;;;10.55;;
20832;SDS011;56075;51.264;7.150;2023-02-18T03:41:01;41.95;;;11.32;;
20832;SDS011;56075;51.264;7.150;2023-02-18T03:43:34;40.13;;;10.93;;
20832;SDS011;56075;51.264;7.150;2023-02-18T03:46:05;40.13;;;11.20;;
20832;SDS011;56075;51.264;7.150;2023-02-18T03:48:37;38.85;;;10.80;;
20832;SDS011;56075;51.264;7.150;2023-02-18T03:51:08;30.07;;;8.87;;
20832;SDS011;56075;51.264;7.150;2023-02-18T03:53:39;27.80;;;8.55;;
20832;SDS011;56075;51.264;7.150;2023-02-18T03:56:11;25.17;;;7.38;;
20832;SDS011;56075;51.264;7.150;2023-02-18T03:58:42;26.42;;;7.47;;
20832;SDS011;56075;51.264;7.150;2023-02-18T04:01:14;22.88;;;7.30;;
20832;SDS011;56075;51.264;7.150;2023-02-18T04:03:45;22.50;;;6.35;;
20832;SDS011;56075;51.264;7.150;2023-02-18T04:06:16;17.02;;;5.85;;
20832;SDS011;56075;51.264;7.150;2023-02-18T04:08:47;17.85;;;5.30;;
20832;SDS011;56075;51.264;7.150;2023-02-18T04:11:19;14.70;;;4.90;;
20832;SDS011;56075;51.264;7.150;2023-02-18T04:13:50;12.75;;;5.10;;
20832;SDS011;56075;51.264;7.150;2023-02-18T04:16:21;11.65;;;4.75;;
20832;SDS011;56075;51.264;7.150;2023-02-18T04:18:53;12.73;;;4.22;;
20832;SDS011;56075;51.264;7.150;2023-02-18T04:21:24;9.38;;;3.78;;
20832;SDS011;56075;51.264;7.150;2023-02-18T04:23:55;8.32;;;3.97;;
20832;SDS011;56075;51.264;7.150;2023-02-18T04:26:27;10.85;;;4.47;;
20832;SDS011;56075;51.264;7.150;2023-02-18T04:28:58;10.32;;;4.05;;
20832;SDS011;56075;51.264;7.150;2023-02-18T04:31:30;10.98;;;4.25;;
20832;SDS011;56075;51.264;7.150;2023-02-18T04:34:01;10.93;;;4.00;;
20832;SDS011;56075;51.264;7.150;2023-02-18T04:36:32;9.38;;;3.70;;
20832;SDS011;56075;51.264;7.150;2023-02-18T04:39:04;8.07;;;3.58;;
20832;SDS011;56075;51.264;7.150;2023-02-18T04:41:35;9.40;;;3.28;;
20832;SDS011;56075;51.264;7.150;2023-02-18T04:44:06;8.18;;;2.97;;
20832;SDS011;56075;51.264;7.150;2023-02-18T04:46:37;7.80;;;2.80;;
20832;SDS011;56075;51.264;7.150;2023-02-18T04:49:08;7.13;;;2.72;;
20832;SDS011;56075;51.264;7.150;2023-02-18T04:51:40;7.32;;;3.10;;
20832;SDS011;56075;51.264;7.150;2023-02-18T04:54:11;8.15;;;3.00;;
20832;SDS011;56075;51.264;7.150;2023-02-18T04:56:42;8.60;;;3.30;;
20832;SDS011;56075;51.264;7.150;2023-02-18T04:59:14;7.47;;;3.13;;
20832;SDS011;56075;51.264;7.150;2023-02-18T05:01:45;7.35;;;3.03;;
20832;SDS011;56075;51.264;7.150;2023-02-18T05:04:16;6.32;;;2.45;;
20832;SDS011;56075;51.264;7.150;2023-02-18T05:06:48;5.95;;;2.50;;
20832;SDS011;56075;51.264;7.150;2023-02-18T05:09:19;6.85;;;2.80;;
20832;SDS011;56075;51.264;7.150;2023-02-18T05:11:50;4.43;;;2.17;;
20832;SDS011;56075;51.264;7.150;2023-02-18T05:14:22;5.05;;;2.42;;
20832;SDS011;56075;51.264;7.150;2023-02-18T05:16:53;6.25;;;2.30;;
20832;SDS011;56075;51.264;7.150;2023-02-18T05:19:25;5.22;;;2.13;;
20832;SDS011;56075;51.264;7.150;2023-02-18T05:21:56;5.10;;;2.20;;
20832;SDS011;56075;51.264;7.150;2023-02-18T05:24:27;5.55;;;2.65;;
20832;SDS011;56075;51.264;7.150;2023-02-18T05:26:59;5.72;;;2.30;;
20832;SDS011;56075;51.264;7.150;2023-02-18T05:29:30;5.90;;;2.65;;
20832;SDS011;56075;51.264;7.150;2023-02-18T05:32:01;5.43;;;2.30;;
20832;SDS011;56075;51.264;7.150;2023-02-18T05:34:32;5.07;;;2.17;;
20832;SDS011;56075;51.264;7.150;2023-02-18T05:37:03;4.80;;;2.22;;
20832;SDS011;56075;51.264;7.150;2023-02-18T05:39:35;5.60;;;2.25;;
20832;SDS011;56075;51.264;7.150;2023-02-18T05:42:06;5.68;;;2.40;;
20832;SDS011;56075;51.264;7.150;2023-02-18T05:44:37;6.65;;;2.80;;
20832;SDS011;56075;51.264;7.150;2023-02-18T05:47:09;5.43;;;2.40;;
20832;SDS011;56075;51.264;7.150;2023-02-18T05:49:41;5.43;;;2.42;;
20832;SDS011;56075;51.264;7.150;2023-02-18T05:52:13;4.78;;;2.47;;
20832;SDS011;56075;51.264;7.150;2023-02-18T05:54:44;7.23;;;2.70;;
20832;SDS011;56075;51.264;7.150;2023-02-18T05:57:16;7.75;;;3.15;;
20832;SDS011;56075;51.264;7.150;2023-02-18T05:59:48;8.15;;;3.22;;
20832;SDS011;56075;51.264;7.150;2023-02-18T06:02:19;5.57;;;2.95;;
20832;SDS011;56075;51.264;7.150;2023-02-18T06:04:50;7.90;;;3.22;;
20832;SDS011;56075;51.264;7.150;2023-02-18T06:07:21;8.50;;;3.42;;
20832;SDS011;56075;51.264;7.150;2023-02-18T06:09:53;6.70;;;3.10;;
20832;SDS011;56075;51.264;7.150;2023-02-18T06:12:24;7.60;;;3.45;;
20832;SDS011;56075;51.264;7.150;2023-02-18T06:14:55;7.03;;;3.15;;
20832;SDS011;56075;51.264;7.150;2023-02-18T06:17:26;6.90;;;3.08;;
20832;SDS011;56075;51.264;7.150;2023-02-18T06:19:58;8.25;;;3.30;;
20832;SDS011;56075;51.264;7.150;2023-02-18T06:22:29;6.88;;;2.78;;
20832;SDS011;56075;51.264;7.150;2023-02-18T06:25:00;7.22;;;3.03;;
20832;SDS011;56075;51.264;7.150;2023-02-18T06:27:31;7.95;;;3.65;;
20832;SDS011;56075;51.264;7.150;2023-02-18T06:30:02;7.90;;;3.50;;
20832;SDS011;56075;51.264;7.150;2023-02-18T06:32:34;7.22;;;3.55;;
20832;SDS011;56075;51.264;7.150;2023-02-18T06:35:06;8.55;;;3.40;;
20832;SDS011;56075;51.264;7.150;2023-02-18T06:37:37;6.55;;;3.25;;
20832;SDS011;56075;51.264;7.150;2023-02-18T06:40:08;7.72;;;2.90;;
20832;SDS011;56075;51.264;7.150;2023-02-18T06:42:40;7.60;;;2.70;;
20832;SDS011;56075;51.264;7.150;2023-02-18T06:45:11;7.35;;;3.60;;
20832;SDS011;56075;51.264;7.150;2023-02-18T06:47:42;9.38;;;3.78;;
20832;SDS011;56075;51.264;7.150;2023-02-18T06:50:14;12.55;;;5.00;;
20832;SDS011;56075;51.264;7.150;2023-02-18T06:52:45;15.32;;;6.40;;
20832;SDS011;56075;51.264;7.150;2023-02-18T06:55:16;18.10;;;6.90;;
20832;SDS011;56075;51.264;7.150;2023-02-18T06:57:48;13.90;;;6.43;;
20832;SDS011;56075;51.264;7.150;2023-02-18T07:00:19;15.73;;;6.32;;
20832;SDS011;56075;51.264;7.150;2023-02-18T07:02:50;17.10;;;7.00;;
20832;SDS011;56075;51.264;7.150;2023-02-18T07:05:22;13.63;;;6.32;;
20832;SDS011;56075;51.264;7.150;2023-02-18T07:07:53;16.30;;;6.85;;
20832;SDS011;56075;51.264;7.150;2023-02-18T07:10:24;13.60;;;6.68;;
20832;SDS011;56075;51.264;7.150;2023-02-18T07:12:56;13.75;;;6.47;;
20832;SDS011;56075;51.264;7.150;2023-02-18T07:15:27;14.85;;;7.13;;
20832;SDS011;56075;51.264;7.150;2023-02-18T07:17:58;16.17;;;8.05;;
20832;SDS011;56075;51.264;7.150;2023-02-18T07:20:30;11.13;;;6.28;;
20832;SDS011;56075;51.264;7.150;2023-02-18T07:23:01;12.05;;;6.15;;
20832;SDS011;56075;51.264;7.150;2023-02-18T07:25:32;12.25;;;5.80;;
20832;SDS011;56075;51.264;7.150;2023-02-18T07:28:03;12.18;;;6.00;;
20832;SDS011;56075;51.264;7.150;2023-02-18T07:30:35;10.20;;;4.85;;
20832;SDS011;56075;51.264;7.150;2023-02-18T07:33:06;9.07;;;4.63;;
20832;SDS011;56075;51.264;7.150;2023-02-18T07:35:37;7.32;;;4.25;;
20832;SDS011;56075;51.264;7.150;2023-02-18T07:38:08;6.60;;;4.00;;
20832;SDS011;56075;51.264;7.150;2023-02-18T07:40:40;7.55;;;4.10;;
20832;SDS011;56075;51.264;7.150;2023-02-18T07:43:11;5.53;;;3.05;;
20832;SDS011;56075;51.264;7.150;2023-02-18T07:45:42;4.85;;;2.85;;
20832;SDS011;56075;51.264;7.150;2023-02-18T07:48:14;5.53;;;3.10;;
20832;SDS011;56075;51.264;7.150;2023-02-18T07:50:46;5.45;;;2.58;;
20832;SDS011;56075;51.264;7.150;2023-02-18T07:53:17;4.75;;;2.65;;
20832;SDS011;56075;51.264;7.150;2023-02-18T07:55:48;6.47;;;3.13;;
20832;SDS011;56075;51.264;7.150;2023-02-18T07:58:21;4.50;;;2.45;;
20832;SDS011;56075;51.264;7.150;2023-02-18T08:00:57;4.63;;;2.60;;
20832;SDS011;56075;51.264;7.150;2023-02-18T08:03:30;4.05;;;2.40;;
20832;SDS011;56075;51.264;7.150;2023-02-18T08:06:03;4.07;;;2.45;;
20832;SDS011;56075;51.264;7.150;2023-02-18T08:08:35;4.95;;;2.40;;
20832;SDS011;56075;51.264;7.150;2023-02-18T08:11:06;3.70;;;2.13;;
20832;SDS011;56075;51.264;7.150;2023-02-18T08:13:37;3.20;;;1.90;;
20832;SDS011;56075;51.264;7.150;2023-02-18T08:16:09;3.67;;;1.50;;
20832;SDS011;56075;51.264;7.150;2023-02-18T08:18:40;3.08;;;1.55;;
20832;SDS011;56075;51.264;7.150;2023-02-18T08:21:12;4.03;;;2.17;;
20832;SDS011;56075;51.264;7.150;2023-02-18T08:23:44;3.42;;;2.15;;
20832;SDS011;56075;51.264;7.150;2023-02-18T08:26:16;3.72;;;1.80;;
20832;SDS011;56075;51.264;7.150;2023-02-18T08:28:48;5.90;;;1.95;;
20832;SDS011;56075;51.264;7.150;2023-02-18T08:31:23;4.05;;;2.00;;
20832;SDS011;56075;51.264;7.150;2023-02-18T08:33:56;6.18;;;1.90;;
20832;SDS011;56075;51.264;7.150;2023-02-18T08:36:30;4.47;;;2.10;;
20832;SDS011;56075;51.264;7.150;2023-02-18T08:39:01;7.03;;;2.33;;
20832;SDS011;56075;51.264;7.150;2023-02-18T08:41:33;5.17;;;2.43;;
20832;SDS011;56075;51.264;7.150;2023-02-18T08:44:04;6.30;;;2.13;;
20832;SDS011;56075;51.264;7.150;2023-02-18T08:46:35;3.87;;;2.20;;
20832;SDS011;56075;51.264;7.150;2023-02-18T08:49:06;6.32;;;2.42;;
20832;SDS011;56075;51.264;7.150;2023-02-18T08:51:38;9.55;;;2.70;;
20832;SDS011;56075;51.264;7.150;2023-02-18T08:54:09;6.50;;;2.30;;
20832;SDS011;56075;51.264;7.150;2023-02-18T08:56:40;8.37;;;2.43;;
20832;SDS011;56075;51.264;7.150;2023-02-18T08:59:11;11.67;;;2.90;;
20832;SDS011;56075;51.264;7.150;2023-02-18T09:01:43;8.43;;;2.20;;
20832;SDS011;56075;51.264;7.150;2023-02-18T09:04:14;7.78;;;2.25;;
20832;SDS011;56075;51.264;7.150;2023-02-18T09:06:46;5.33;;;2.47;;
20832;SDS011;56075;51.264;7.150;2023-02-18T09:09:18;7.10;;;2.73;;
20832;SDS011;56075;51.264;7.150;2023-02-18T09:11:49;8.77;;;2.67;;
20832;SDS011;56075;51.264;7.150;2023-02-18T09:14:21;7.00;;;2.80;;
20832;SDS011;56075;51.264;7.150;2023-02-18T09:16:52;9.03;;;3.00;;
20832;SDS011;56075;51.264;7.150;2023-02-18T09:19:24;9.23;;;3.33;;
20832;SDS011;56075;51.264;7.150;2023-02-18T09:21:56;10.20;;;3.13;;
20832;SDS011;56075;51.264;7.150;2023-02-18T09:24:27;12.13;;;3.33;;
20832;SDS011;56075;51.264;7.150;2023-02-18T09:26:58;12.83;;;3.10;;
20832;SDS011;56075;51.264;7.150;2023-02-18T09:29:30;11.10;;;3.13;;
20832;SDS011;56075;51.264;7.150;2023-02-18T09:32:03;11.13;;;2.90;;
20832;SDS011;56075;51.264;7.150;2023-02-18T09:34:35;14.47;;;3.40;;
20832;SDS011;56075;51.264;7.150;2023-02-18T09:37:06;9.17;;;3.00;;
20832;SDS011;56075;51.264;7.150;2023-02-18T09:39:38;9.67;;;3.00;;
20832;SDS011;56075;51.264;7.150;2023-02-18T09:42:13;9.03;;;2.53;;
20832;SDS011;56075;51.264;7.150;2023-02-18T09:44:50;7.00;;;2.60;;
20832;SDS011;56075;51.264;7.150;2023-02-18T09:50:13;11.90;;;2.83;;
20832;SDS011;56075;51.264;7.150;2023-02-18T09:52:59;10.55;;;3.00;;
20832;SDS011;56075;51.264;7.150;2023-02-18T09:55:32;9.00;;;2.63;;
20832;SDS011;56075;51.264;7.150;2023-02-18T09:58:16;10.40;;;3.07;;
20832;SDS011;56075;51.264;7.150;2023-02-18T10:01:03;13.35;;;3.28;;
20832;SDS011;56075;51.264;7.150;2023-02-18T10:03:53;14.40;;;3.20;;
20832;SDS011;56075;51.264;7.150;2023-02-18T10:06:29;8.57;;;2.67;;
20832;SDS011;56075;51.264;7.150;2023-02-18T10:09:11;11.80;;;2.93;;
20832;SDS011;56075;51.264;7.150;2023-02-18T10:11:45;12.37;;;3.50;;
20832;SDS011;56075;51.264;7.150;2023-02-18T10:14:50;10.17;;;2.67;;
20832;SDS011;56075;51.264;7.150;2023-02-18T10:17:24;18.50;;;3.00;;
20832;SDS011;56075;51.264;7.150;2023-02-18T10:19:59;8.57;;;3.00;;
20832;SDS011;56075;51.264;7.150;2023-02-18T10:22:30;11.33;;;3.27;;
20832;SDS011;56075;51.264;7.150;2023-02-18T10:25:02;15.15;;;3.30;;
20832;SDS011;56075;51.264;7.150;2023-02-18T10:27:36;11.20;;;3.03;;
20832;SDS011;56075;51.264;7.150;2023-02-18T10:32:59;13.43;;;3.30;;
20832;SDS011;56075;51.264;7.150;2023-02-18T10:36:05;18.33;;;3.47;;
20832;SDS011;56075;51.264;7.150;2023-02-18T10:41:23;14.20;;;3.00;;
20832;SDS011;56075;51.264;7.150;2023-02-18T10:46:41;13.33;;;2.90;;
20832;SDS011;56075;51.264;7.150;2023-02-18T10:52:04;13.47;;;3.23;;
20832;SDS011;56075;51.264;7.150;2023-02-18T10:57:29;22.23;;;3.60;;
20832;SDS011;56075;51.264;7.150;2023-02-18T11:00:15;18.60;;;4.10;;
20832;SDS011;56075;51.264;7.150;2023-02-18T11:05:34;13.90;;;3.80;;
20832;SDS011;56075;51.264;7.150;2023-02-18T11:08:07;19.80;;;4.17;;
20832;SDS011;56075;51.264;7.150;2023-02-18T11:10:43;15.73;;;3.67;;
20832;SDS011;56075;51.264;7.150;2023-02-18T11:13:37;14.37;;;3.57;;
20832;SDS011;56075;51.264;7.150;2023-02-18T11:16:07;14.83;;;3.97;;
20832;SDS011;56075;51.264;7.150;2023-02-18T11:18:42;15.65;;;3.78;;
20832;SDS011;56075;51.264;7.150;2023-02-18T11:21:35;11.17;;;3.90;;
20832;SDS011;56075;51.264;7.150;2023-02-18T11:24:14;11.47;;;4.00;;
20832;SDS011;56075;51.264;7.150;2023-02-18T11:26:46;16.47;;;4.10;;
20832;SDS011;56075;51.264;7.150;2023-02-18T11:31:54;17.53;;;3.97;;
20832;SDS011;56075;51.264;7.150;2023-02-18T11:34:27;13.60;;;4.40;;
20832;SDS011;56075;51.264;7.150;2023-02-18T11:37:10;17.67;;;4.43;;
20832;SDS011;56075;51.264;7.150;2023-02-18T11:39:47;14.43;;;5.23;;
20832;SDS011;56075;51.264;7.150;2023-02-18T11:42:22;9.20;;;4.23;;
20832;SDS011;56075;51.264;7.150;2023-02-18T11:44:57;11.17;;;4.23;;
20832;SDS011;56075;51.264;7.150;2023-02-18T11:47:32;11.35;;;3.95;;
20832;SDS011;56075;51.264;7.150;2023-02-18T11:52:43;11.23;;;4.20;;
20832;SDS011;56075;51.264;7.150;2023-02-18T11:58:01;12.40;;;4.17;;
20832;SDS011;56075;51.264;7.150;2023-02-18T12:00:42;14.07;;;3.60;;
20832;SDS011;56075;51.264;7.150;2023-02-18T12:06:13;7.53;;;3.37;;
20832;SDS011;56075;51.264;7.150;2023-02-18T12:08:53;10.83;;;3.77;;
20832;SDS011;56075;51.264;7.150;2023-02-18T12:11:33;10.77;;;3.63;;
20832;SDS011;56075;51.264;7.150;2023-02-18T12:14:20;8.40;;;3.63;;
20832;SDS011;56075;51.264;7.150;2023-02-18T12:22:49;10.27;;;4.00;;
20832;SDS011;56075;51.264;7.150;2023-02-18T12:25:38;7.97;;;3.23;;
20832;SDS011;56075;51.264;7.150;2023-02-18T12:48:53;7.37;;;3.60;;
20832;SDS011;56075;51.264;7.150;2023-02-18T12:57:33;7.67;;;3.47;;
20832;SDS011;56075;51.264;7.150;2023-02-18T13:00:21;10.33;;;3.50;;
20832;SDS011;56075;51.264;7.150;2023-02-18T13:03:26;9.00;;;3.73;;
20832;SDS011;56075;51.264;7.150;2023-02-18T13:08:56;9.23;;;4.10;;
20832;SDS011;56075;51.264;7.150;2023-02-18T13:11:45;10.40;;;3.73;;
20832;SDS011;56075;51.264;7.150;2023-02-18T13:17:47;7.87;;;3.37;;
20832;SDS011;56075;51.264;7.150;2023-02-18T13:20:21;9.20;;;3.63;;
20832;SDS011;56075;51.264;7.150;2023-02-18T13:22:57;8.10;;;3.83;;
20832;SDS011;56075;51.264;7.150;2023-02-18T13:25:28;9.50;;;4.10;;
20832;SDS011;56075;51.264;7.150;2023-02-18T13:31:16;8.23;;;3.60;;
20832;SDS011;56075;51.264;7.150;2023-02-18T13:39:00;9.68;;;4.47;;
20832;SDS011;56075;51.264;7.150;2023-02-18T13:42:09;9.43;;;4.20;;
20832;SDS011;56075;51.264;7.150;2023-02-18T13:55:49;10.00;;;4.80;;
20832;SDS011;56075;51.264;7.150;2023-02-18T13:58:22;13.70;;;5.10;;
20832;SDS011;56075;51.264;7.150;2023-02-18T14:01:03;13.57;;;5.87;;
20832;SDS011;56075;51.264;7.150;2023-02-18T14:06:22;13.32;;;5.30;;
20832;SDS011;56075;51.264;7.150;2023-02-18T14:09:33;12.93;;;4.38;;
20832;SDS011;56075;51.264;7.150;2023-02-18T14:11:56;9.98;;;4.28;;
20832;SDS011;56075;51.264;7.150;2023-02-18T14:14:45;11.23;;;4.25;;
20832;SDS011;56075;51.264;7.150;2023-02-18T14:25:32;14.80;;;6.13;;
20832;SDS011;56075;51.264;7.150;2023-02-18T14:36:35;21.55;;;7.70;;
20832;SDS011;56075;51.264;7.150;2023-02-18T14:42:05;22.92;;;8.52;;
20832;SDS011;56075;51.264;7.150;2023-02-18T14:47:27;19.73;;;7.80;;
20832;SDS011;56075;51.264;7.150;2023-02-18T14:50:17;19.27;;;7.17;;
20832;SDS011;56075;51.264;7.150;2023-02-18T14:52:55;20.77;;;7.83;;
20832;SDS011;56075;51.264;7.150;2023-02-18T14:55:29;19.70;;;6.82;;
20832;SDS011;56075;51.264;7.150;2023-02-18T14:58:05;17.38;;;7.03;;
20832;SDS011;56075;51.264;7.150;2023-02-18T15:00:54;17.95;;;6.60;;
20832;SDS011;56075;51.264;7.150;2023-02-18T15:03:26;15.90;;;6.35;;
20832;SDS011;56075;51.264;7.150;2023-02-18T15:05:58;17.15;;;6.90;;
20832;SDS011;56075;51.264;7.150;2023-02-18T15:08:35;15.90;;;6.50;;
20832;SDS011;56075;51.264;7.150;2023-02-18T15:11:09;17.67;;;7.27;;
20832;SDS011;56075;51.264;7.150;2023-02-18T15:13:42;17.80;;;7.33;;
20832;SDS011;56075;51.264;7.150;2023-02-18T15:16:19;19.38;;;6.63;;
20832;SDS011;56075;51.264;7.150;2023-02-18T15:19:03;16.00;;;6.70;;
20832;SDS011;56075;51.264;7.150;2023-02-18T15:21:38;14.07;;;6.17;;
20832;SDS011;56075;51.264;7.150;2023-02-18T15:24:31;12.93;;;6.00;;
20832;SDS011;56075;51.264;7.150;2023-02-18T15:27:10;13.48;;;6.47;;
20832;SDS011;56075;51.264;7.150;2023-02-18T15:29:42;18.90;;;6.93;;
20832;SDS011;56075;51.264;7.150;2023-02-18T15:32:14;16.38;;;6.20;;
20832;SDS011;56075;51.264;7.150;2023-02-18T15:34:51;16.07;;;7.13;;
20832;SDS011;56075;51.264;7.150;2023-02-18T15:37:27;15.18;;;6.70;;
20832;SDS011;56075;51.264;7.150;2023-02-18T15:40:00;14.73;;;6.47;;
20832;SDS011;56075;51.264;7.150;2023-02-18T15:42:32;16.10;;;6.67;;
20832;SDS011;56075;51.264;7.150;2023-02-18T15:47:44;17.83;;;6.95;;
20832;SDS011;56075;51.264;7.150;2023-02-18T15:50:54;14.80;;;7.35;;
20832;SDS011;56075;51.264;7.150;2023-02-18T15:53:20;14.50;;;6.45;;
20832;SDS011;56075;51.264;7.150;2023-02-18T15:55:52;15.60;;;6.40;;
20832;SDS011;56075;51.264;7.150;2023-02-18T15:58:28;17.50;;;8.25;;
20832;SDS011;56075;51.264;7.150;2023-02-18T16:01:01;18.37;;;8.20;;
20832;SDS011;56075;51.264;7.150;2023-02-18T16:03:44;21.23;;;7.95;;
20832;SDS011;56075;51.264;7.150;2023-02-18T16:06:27;23.43;;;8.77;;
20832;SDS011;56075;51.264;7.150;2023-02-18T16:08:59;24.47;;;9.33;;
20832;SDS011;56075;51.264;7.150;2023-02-18T16:11:36;23.98;;;9.15;;
20832;SDS011;56075;51.264;7.150;2023-02-18T16:17:15;25.95;;;10.77;;
20832;SDS011;56075;51.264;7.150;2023-02-18T16:19:54;24.13;;;10.93;;
20832;SDS011;56075;51.264;7.150;2023-02-18T16:22:44;25.42;;;9.15;;
20832;SDS011;56075;51.264;7.150;2023-02-18T16:25:25;23.08;;;10.10;;
20832;SDS011;56075;51.264;7.150;2023-02-18T16:30:37;24.08;;;10.07;;
20832;SDS011;56075;51.264;7.150;2023-02-18T16:33:10;22.52;;;9.23;;
20832;SDS011;56075;51.264;7.150;2023-02-18T16:35:42;28.75;;;10.15;;
20832;SDS011;56075;51.264;7.150;2023-02-18T16:38:19;23.17;;;10.80;;
20832;SDS011;56075;51.264;7.150;2023-02-18T16:40:52;21.02;;;10.57;;
20832;SDS011;56075;51.264;7.150;2023-02-18T16:43:24;23.30;;;11.13;;
20832;SDS011;56075;51.264;7.150;2023-02-18T16:45:57;23.85;;;10.60;;
20832;SDS011;56075;51.264;7.150;2023-02-18T16:48:36;21.90;;;9.15;;
20832;SDS011;56075;51.264;7.150;2023-02-18T16:53:44;24.03;;;10.00;;
20832;SDS011;56075;51.264;7.150;2023-02-18T16:56:16;23.35;;;9.50;;
20832;SDS011;56075;51.264;7.150;2023-02-18T16:58:49;21.57;;;10.17;;
20832;SDS011;56075;51.264;7.150;2023-02-18T17:01:25;24.02;;;10.88;;
20832;SDS011;56075;51.264;7.150;2023-02-18T17:04:01;26.67;;;10.32;;
20832;SDS011;56075;51.264;7.150;2023-02-18T17:06:33;25.10;;;10.27;;
20832;SDS011;56075;51.264;7.150;2023-02-18T17:09:09;20.30;;;9.43;;
20832;SDS011;56075;51.264;7.150;2023-02-18T17:11:50;20.83;;;9.50;;
20832;SDS011;56075;51.264;7.150;2023-02-18T17:14:23;20.65;;;9.38;;
20832;SDS011;56075;51.264;7.150;2023-02-18T17:16:55;29.07;;;10.77;;
20832;SDS011;56075;51.264;7.150;2023-02-18T17:19:27;22.20;;;10.77;;
20832;SDS011;56075;51.264;7.150;2023-02-18T17:21:58;25.17;;;10.43;;
20832;SDS011;56075;51.264;7.150;2023-02-18T17:24:29;25.80;;;10.23;;
20832;SDS011;56075;51.264;7.150;2023-02-18T17:27:00;23.05;;;9.55;;
20832;SDS011;56075;51.264;7.150;2023-02-18T17:29:31;22.20;;;9.95;;
20832;SDS011;56075;51.264;7.150;2023-02-18T17:32:03;26.58;;;11.00;;
20832;SDS011;56075;51.264;7.150;2023-02-18T17:34:36;25.65;;;12.85;;
20832;SDS011;56075;51.264;7.150;2023-02-18T17:37:13;25.38;;;10.82;;
20832;SDS011;56075;51.264;7.150;2023-02-18T17:39:44;25.77;;;11.45;;
20832;SDS011;56075;51.264;7.150;2023-02-18T17:42:15;27.83;;;11.35;;
20832;SDS011;56075;51.264;7.150;2023-02-18T17:44:46;29.98;;;12.35;;
20832;SDS011;56075;51.264;7.150;2023-02-18T17:47:17;26.33;;;12.40;;
20832;SDS011;56075;51.264;7.150;2023-02-18T17:49:48;30.42;;;13.52;;
20832;SDS011;56075;51.264;7.150;2023-02-18T17:52:24;24.88;;;12.15;;
20832;SDS011;56075;51.264;7.150;2023-02-18T17:55:00;33.83;;;13.02;;
20832;SDS011;56075;51.264;7.150;2023-02-18T17:57:31;25.63;;;13.20;;
20832;SDS011;56075;51.264;7.150;2023-02-18T18:00:03;30.75;;;13.05;;
20832;SDS011;56075;51.264;7.150;2023-02-18T18:02:38;30.67;;;13.32;;
20832;SDS011;56075;51.264;7.150;2023-02-18T18:05:20;25.73;;;11.38;;